Time;durP1;ratioP1;P1;durP2;ratioP2;P2;SDS_P1;SDS_P2;PMS_P1;PMS_P2;Temp;Humidity;BMP_temperature;BMP_pressure;BME280_temperature;BME280_humidity;BME280_pressure;Samples;Min_cycle;Max_cycle;Signal;HPM_P1;HPM_P2
2021/08/30 00:01:53;;;;;;;7.55;4.95;;;23.60;99.90;;;;;;4878770;29;20514;-85
2021/08/30 00:04:19;;;;;;;5.65;4.90;;;23.60;99.90;;;;;;4846459;29;20059;-80
2021/08/30 00:06:45;;;;;;;7.40;5.50;;;23.60;99.90;;;;;;4862167;29;20403;-81
2021/08/30 00:09:11;;;;;;;7.30;5.28;;;23.60;99.90;;;;;;4862027;29;20495;-81
2021/08/30 00:11:37;;;;;;;8.23;5.60;;;23.60;99.90;;;;;;4878704;29;20145;-81
2021/08/30 00:14:04;;;;;;;5.63;4.88;;;23.60;99.90;;;;;;4880335;29;20113;-81
2021/08/30 00:16:30;;;;;;;6.40;4.95;;;23.60;99.90;;;;;;4865383;29;20041;-80
2021/08/30 00:18:56;;;;;;;6.90;5.20;;;23.60;99.90;;;;;;4881905;29;20039;-86
2021/08/30 00:21:22;;;;;;;8.73;5.82;;;23.60;99.90;;;;;;4849697;29;20084;-82
2021/08/30 00:23:47;;;;;;;6.82;5.35;;;23.60;99.90;;;;;;4865276;29;20037;-81
2021/08/30 00:26:13;;;;;;;6.70;5.55;;;23.60;99.90;;;;;;4865090;29;20033;-81
2021/08/30 00:28:40;;;;;;;6.18;5.13;;;23.60;99.90;;;;;;4882012;29;20033;-81
2021/08/30 00:31:06;;;;;;;6.78;5.65;;;23.60;99.90;;;;;;4865229;29;20033;-82
2021/08/30 00:33:32;;;;;;;6.38;5.35;;;23.60;99.90;;;;;;4865067;29;20059;-81
2021/08/30 00:35:57;;;;;;;6.45;5.32;;;23.60;99.90;;;;;;4864946;29;20093;-85
2021/08/30 00:38:23;;;;;;;6.40;4.82;;;23.60;99.90;;;;;;4881758;29;20041;-81
2021/08/30 00:40:49;;;;;;;7.65;5.55;;;23.60;99.90;;;;;;4865089;29;20417;-81
2021/08/30 00:43:14;;;;;;;9.60;5.68;;;23.60;99.90;;;;;;4881350;29;20116;-81
2021/08/30 00:45:41;;;;;;;11.77;5.68;;;23.60;99.90;;;;;;4864708;29;20033;-82
2021/08/30 00:48:06;;;;;;;8.00;5.50;;;23.60;99.90;;;;;;4881317;29;20033;-82
2021/08/30 00:50:32;;;;;;;7.63;5.47;;;23.60;99.90;;;;;;4881448;29;20029;-80
2021/08/30 00:52:58;;;;;;;8.45;6.38;;;23.60;99.90;;;;;;4864912;29;20037;-81
2021/08/30 00:55:24;;;;;;;7.93;5.90;;;23.60;99.90;;;;;;4881157;29;20468;-80
2021/08/30 00:57:50;;;;;;;8.52;6.57;;;23.60;99.90;;;;;;4864633;29;20040;-81
2021/08/30 01:00:16;;;;;;;9.00;6.30;;;23.60;99.90;;;;;;4864386;29;20033;-81
2021/08/30 01:02:42;;;;;;;7.45;6.10;;;23.60;99.90;;;;;;4864669;29;20396;-81
2021/08/30 01:05:14;;;;;;;7.18;5.72;;;23.60;99.90;;;;;;4881099;29;20033;-81
2021/08/30 01:07:59;;;;;;;9.63;6.25;;;23.60;99.90;;;;;;4881284;29;20033;-81
2021/08/30 01:10:51;;;;;;;9.48;6.05;;;23.60;99.90;;;;;;4880135;29;20052;-81
2021/08/30 01:13:33;;;;;;;8.48;6.53;;;23.60;99.90;;;;;;4880925;29;20036;-82
2021/08/30 01:16:03;;;;;;;8.48;6.53;;;23.60;99.90;;;;;;4881188;29;20456;-81
2021/08/30 01:18:31;;;;;;;9.30;6.72;;;23.60;99.90;;;;;;4881125;29;20037;-81
2021/08/30 01:21:23;;;;;;;12.63;6.93;;;23.60;99.90;;;;;;4864500;29;20041;-82
2021/08/30 01:24:09;;;;;;;9.63;7.10;;;23.60;99.90;;;;;;4861872;29;20045;-82
2021/08/30 01:26:39;;;;;;;8.63;6.55;;;23.60;99.90;;;;;;4861825;29;20445;-82
2021/08/30 01:29:20;;;;;;;8.27;6.78;;;23.70;99.90;;;;;;4862164;29;20033;-84
2021/08/30 01:32:29;;;;;;;10.65;7.22;;;23.60;99.90;;;;;;4862127;29;20031;-82
2021/08/30 01:34:57;;;;;;;8.77;6.85;;;23.60;99.90;;;;;;4862241;29;20069;-82
2021/08/30 01:37:24;;;;;;;9.95;6.85;;;23.70;99.90;;;;;;4861818;29;20112;-82
2021/08/30 01:39:51;;;;;;;8.85;6.38;;;23.60;99.90;;;;;;4862025;29;20042;-82
2021/08/30 01:42:17;;;;;;;8.60;6.72;;;23.60;99.90;;;;;;4845091;29;20041;-82
2021/08/30 01:44:43;;;;;;;10.60;6.85;;;23.60;99.90;;;;;;4861834;29;20037;-83
2021/08/30 01:47:10;;;;;;;9.30;6.60;;;23.60;99.90;;;;;;4861797;29;20052;-82
2021/08/30 01:49:36;;;;;;;9.55;6.88;;;23.60;99.90;;;;;;4845524;29;20472;-82
2021/08/30 01:52:03;;;;;;;10.73;7.40;;;23.60;99.90;;;;;;4861910;29;20051;-82
2021/08/30 01:54:29;;;;;;;10.10;7.20;;;23.60;99.90;;;;;;4829866;29;20090;-82
2021/08/30 01:56:57;;;;;;;7.93;6.57;;;23.60;99.90;;;;;;4861758;29;20085;-82
2021/08/30 02:02:10;;;;;;;10.20;6.65;;;23.50;99.90;;;;;;4847549;29;20047;-83
2021/08/30 02:04:36;;;;;;;7.95;6.70;;;23.60;99.90;;;;;;4861797;29;20396;-82
2021/08/30 02:07:04;;;;;;;8.82;7.15;;;23.60;99.90;;;;;;4845004;29;20034;-80
2021/08/30 02:09:30;;;;;;;11.15;7.28;;;23.60;99.90;;;;;;4844938;29;20033;-81
2021/08/30 02:11:56;;;;;;;8.70;6.78;;;23.60;99.90;;;;;;4844999;29;20044;-82
2021/08/30 02:14:21;;;;;;;10.40;7.30;;;23.50;99.90;;;;;;4844537;29;20034;-81
2021/08/30 02:16:52;;;;;;;11.10;7.65;;;23.50;99.90;;;;;;4844754;29;20406;-81
2021/08/30 02:19:23;;;;;;;8.38;6.80;;;23.50;99.90;;;;;;4861223;29;20042;-81
2021/08/30 02:22:22;;;;;;;9.70;6.35;;;23.50;99.90;;;;;;4850862;29;20055;-82
2021/08/30 02:24:53;;;;;;;9.18;6.60;;;23.50;99.90;;;;;;4862019;29;20480;-82
2021/08/30 02:27:27;;;;;;;8.65;6.90;;;23.50;99.90;;;;;;4879321;29;20043;-81
2021/08/30 02:30:02;;;;;;;11.18;7.63;;;23.50;99.90;;;;;;4879817;29;20108;-81
2021/08/30 02:32:29;;;;;;;9.18;6.90;;;23.50;99.90;;;;;;4862775;29;20373;-82
2021/08/30 02:34:57;;;;;;;7.72;6.40;;;23.50;99.90;;;;;;4879570;29;20116;-82
2021/08/30 02:37:25;;;;;;;11.15;7.28;;;23.60;99.90;;;;;;4862131;29;20476;-82
2021/08/30 02:39:53;;;;;;;8.10;7.00;;;23.60;99.90;;;;;;4862935;29;20037;-82
2021/08/30 02:42:20;;;;;;;10.82;7.75;;;23.50;99.90;;;;;;4847560;29;20037;-82
2021/08/30 02:44:46;;;;;;;9.23;7.03;;;23.50;99.90;;;;;;4879489;29;20081;-82
2021/08/30 02:47:14;;;;;;;8.82;7.18;;;23.50;99.90;;;;;;4879187;29;20067;-84
2021/08/30 02:49:44;;;;;;;9.23;6.93;;;23.50;99.90;;;;;;4879754;29;20033;-82
2021/08/30 02:52:12;;;;;;;8.82;6.50;;;23.50;99.90;;;;;;4862750;29;20527;-82
2021/08/30 02:54:39;;;;;;;10.52;7.63;;;23.50;99.90;;;;;;4878965;29;20028;-82
2021/08/30 02:57:06;;;;;;;11.88;7.70;;;23.50;99.90;;;;;;4862913;29;20041;-82
2021/08/30 02:59:33;;;;;;;10.30;7.10;;;23.50;99.90;;;;;;4879081;29;20085;-82
2021/08/30 03:02:00;;;;;;;9.85;7.13;;;23.50;99.90;;;;;;4879060;29;20026;-82
2021/08/30 03:04:26;;;;;;;9.35;6.82;;;23.50;99.90;;;;;;4878766;29;20063;-83
2021/08/30 03:06:53;;;;;;;10.02;7.35;;;23.50;99.90;;;;;;4879067;29;20100;-82
2021/08/30 03:09:19;;;;;;;10.55;6.70;;;23.50;99.90;;;;;;4878865;29;20029;-83
2021/08/30 03:11:47;;;;;;;9.15;7.35;;;23.40;99.90;;;;;;4862429;29;20092;-82
2021/08/30 03:14:18;;;;;;;9.52;7.15;;;23.40;99.90;;;;;;4862595;29;20464;-82
2021/08/30 03:16:44;;;;;;;10.52;6.53;;;23.40;99.90;;;;;;4879261;29;20033;-82
2021/08/30 03:19:13;;;;;;;10.48;6.97;;;23.40;99.90;;;;;;4862698;29;20033;-82
2021/08/30 03:21:40;;;;;;;8.82;7.18;;;23.40;99.90;;;;;;4879161;29;20080;-82
2021/08/30 03:24:07;;;;;;;10.07;7.10;;;23.40;99.90;;;;;;4862719;29;20178;-82
2021/08/30 03:26:34;;;;;;;9.55;7.25;;;23.40;99.90;;;;;;4878876;29;20041;-82
2021/08/30 03:29:01;;;;;;;9.35;7.30;;;23.40;99.90;;;;;;4879092;29;20491;-82
2021/08/30 03:31:28;;;;;;;10.75;7.68;;;23.40;99.90;;;;;;4862336;29;20040;-82
2021/08/30 03:33:55;;;;;;;8.85;6.90;;;23.40;99.90;;;;;;4862396;29;20392;-83
2021/08/30 03:36:21;;;;;;;9.63;7.10;;;23.40;99.90;;;;;;4878874;29;20044;-82
2021/08/30 03:38:47;;;;;;;9.80;7.15;;;23.40;99.90;;;;;;4879027;29;20041;-82
2021/08/30 03:41:14;;;;;;;11.68;7.47;;;23.40;99.90;;;;;;4862294;29;20033;-82
2021/08/30 03:43:41;;;;;;;12.57;7.55;;;23.40;99.90;;;;;;4878459;29;20033;-82
2021/08/30 03:46:07;;;;;;;7.85;6.60;;;23.40;99.90;;;;;;4846949;29;20034;-82
2021/08/30 03:48:33;;;;;;;10.05;7.55;;;23.40;99.90;;;;;;4848147;29;20037;-82
2021/08/30 03:51:00;;;;;;;9.40;7.28;;;23.40;99.90;;;;;;4882672;29;20036;-82
2021/08/30 03:53:28;;;;;;;9.02;7.22;;;23.40;99.90;;;;;;4882015;29;20057;-82
2021/08/30 03:55:55;;;;;;;9.65;7.78;;;23.40;99.90;;;;;;4882777;29;20072;-82
2021/08/30 03:58:22;;;;;;;8.45;6.57;;;23.40;99.90;;;;;;4881907;29;20484;-86
2021/08/30 04:00:48;;;;;;;9.65;6.95;;;23.30;99.90;;;;;;4865915;29;20044;-82
2021/08/30 04:03:15;;;;;;;10.15;7.90;;;23.30;99.90;;;;;;4865609;29;20030;-82
2021/08/30 04:05:42;;;;;;;9.10;7.03;;;23.40;99.90;;;;;;4881749;29;20037;-82
2021/08/30 04:08:08;;;;;;;9.43;7.70;;;23.40;99.90;;;;;;4882298;29;20040;-82
2021/08/30 04:10:36;;;;;;;10.45;6.82;;;23.40;99.90;;;;;;4881909;29;20048;-82
2021/08/30 04:13:03;;;;;;;9.80;7.28;;;23.40;99.90;;;;;;4882528;29;20036;-82
2021/08/30 04:15:32;;;;;;;11.65;7.53;;;23.30;99.90;;;;;;4865482;29;20052;-82
2021/08/30 04:17:58;;;;;;;10.73;7.25;;;23.30;99.90;;;;;;4882119;29;20115;-82
2021/08/30 04:20:23;;;;;;;9.23;7.07;;;23.40;99.90;;;;;;4881729;29;20112;-86
2021/08/30 04:22:49;;;;;;;10.95;7.85;;;23.40;99.90;;;;;;4849854;29;20188;-82
2021/08/30 04:25:15;;;;;;;9.75;7.78;;;23.30;99.90;;;;;;4865300;29;20392;-82
2021/08/30 04:27:41;;;;;;;10.23;7.85;;;23.40;99.90;;;;;;4865252;29;20044;-82
2021/08/30 04:30:08;;;;;;;10.90;7.80;;;23.40;99.90;;;;;;4881609;29;20547;-82
2021/08/30 04:32:36;;;;;;;11.20;8.23;;;23.30;99.90;;;;;;4864938;29;20033;-82
2021/08/30 04:35:03;;;;;;;9.50;7.78;;;23.40;99.90;;;;;;4882079;29;20036;-82
2021/08/30 04:37:29;;;;;;;10.73;7.68;;;23.40;99.90;;;;;;4864761;29;20053;-81
2021/08/30 04:39:55;;;;;;;9.43;7.25;;;23.40;99.90;;;;;;4849912;29;20170;-82
2021/08/30 04:42:20;;;;;;;11.95;7.65;;;23.30;99.90;;;;;;4864823;29;20033;-82
2021/08/30 04:44:46;;;;;;;9.35;7.72;;;23.40;99.90;;;;;;4881636;29;20088;-82
2021/08/30 04:47:12;;;;;;;10.82;7.90;;;23.40;99.90;;;;;;4881518;29;20483;-83
2021/08/30 04:49:38;;;;;;;8.20;7.22;;;23.40;99.90;;;;;;4881361;29;20036;-82
2021/08/30 04:52:04;;;;;;;9.55;7.63;;;23.40;99.90;;;;;;4881540;29;20105;-82
2021/08/30 04:54:30;;;;;;;12.35;8.15;;;23.30;99.90;;;;;;4880969;29;20052;-82
2021/08/30 04:56:56;;;;;;;10.90;7.68;;;23.30;99.90;;;;;;4864657;29;20440;-81
2021/08/30 04:59:21;;;;;;;10.65;8.13;;;23.30;99.90;;;;;;4880835;29;20033;-82
2021/08/30 05:01:47;;;;;;;10.77;7.90;;;23.40;99.90;;;;;;4848997;29;20033;-82
2021/08/30 05:04:13;;;;;;;12.32;8.10;;;23.40;99.90;;;;;;4864829;29;20033;-82
2021/08/30 05:06:38;;;;;;;10.60;7.70;;;23.40;99.90;;;;;;4864058;29;20479;-82
2021/08/30 05:09:04;;;;;;;10.80;8.02;;;23.40;99.90;;;;;;4864350;29;20041;-82
2021/08/30 05:11:30;;;;;;;11.25;8.27;;;23.40;99.90;;;;;;4864037;29;20419;-83
2021/08/30 05:13:55;;;;;;;9.32;7.55;;;23.40;99.90;;;;;;4864444;29;20471;-82
2021/08/30 05:16:21;;;;;;;11.45;8.07;;;23.40;99.90;;;;;;4881111;29;20112;-82
2021/08/30 05:18:47;;;;;;;10.90;8.60;;;23.40;99.90;;;;;;4880707;29;20480;-82
2021/08/30 05:21:12;;;;;;;9.88;7.97;;;23.40;99.90;;;;;;4864133;29;20037;-83
2021/08/30 05:23:38;;;;;;;14.25;8.95;;;23.40;99.90;;;;;;4863999;29;20463;-83
2021/08/30 05:26:04;;;;;;;13.02;8.68;;;23.50;99.90;;;;;;4880791;29;20041;-82
2021/08/30 05:28:29;;;;;;;12.10;8.30;;;23.50;99.90;;;;;;4864167;29;20369;-82
2021/08/30 05:30:55;;;;;;;12.82;8.85;;;23.50;99.90;;;;;;4848654;29;20068;-82
2021/08/30 05:33:21;;;;;;;10.77;8.20;;;23.60;99.90;;;;;;4864191;29;20033;-81
2021/08/30 05:35:47;;;;;;;15.35;10.00;;;23.60;99.90;;;;;;4863963;29;20048;-81
2021/08/30 05:38:12;;;;;;;13.70;8.60;;;23.60;99.90;;;;;;4862771;29;20539;-81
2021/08/30 05:40:38;;;;;;;11.93;8.77;;;23.60;99.90;;;;;;4863902;29;20033;-84
2021/08/30 05:43:04;;;;;;;12.57;8.50;;;23.60;99.90;;;;;;4864509;29;20033;-84
2021/08/30 05:45:31;;;;;;;14.32;9.02;;;23.70;99.90;;;;;;4864190;29;20417;-85
2021/08/30 05:47:57;;;;;;;11.27;8.48;;;23.70;99.90;;;;;;4880270;29;20033;-84
2021/08/30 05:50:22;;;;;;;12.70;8.63;;;23.70;99.90;;;;;;4881030;29;20108;-84
2021/08/30 05:52:48;;;;;;;14.43;8.98;;;23.70;99.90;;;;;;4848091;29;20440;-84
2021/08/30 05:55:14;;;;;;;12.43;8.48;;;23.70;99.90;;;;;;4863834;29;20472;-84
2021/08/30 05:57:40;;;;;;;13.77;9.00;;;23.70;99.90;;;;;;4848047;29;20085;-85
2021/08/30 06:00:06;;;;;;;13.52;8.52;;;23.70;99.90;;;;;;4863702;29;20056;-82
2021/08/30 06:02:32;;;;;;;12.35;8.32;;;23.70;99.90;;;;;;4863280;29;20044;-82
2021/08/30 06:04:58;;;;;;;15.68;9.70;;;23.70;99.90;;;;;;4878749;29;20029;-83
2021/08/30 06:07:23;;;;;;;12.70;8.60;;;23.70;99.90;;;;;;4863520;29;20032;-83
2021/08/30 06:09:49;;;;;;;12.27;9.18;;;23.70;99.90;;;;;;4863525;29;20029;-84
2021/08/30 06:12:14;;;;;;;14.50;9.00;;;23.70;99.90;;;;;;4862852;29;20120;-81
2021/08/30 06:14:41;;;;;;;13.73;9.10;;;23.70;99.90;;;;;;4863212;29;20483;-82
2021/08/30 06:17:09;;;;;;;12.32;9.32;;;23.60;99.90;;;;;;4880243;29;20116;-82
2021/08/30 06:19:35;;;;;;;13.48;8.68;;;23.60;99.90;;;;;;4879957;29;20053;-82
2021/08/30 06:22:01;;;;;;;13.77;9.20;;;23.60;99.90;;;;;;4879757;29;20048;-82
2021/08/30 06:24:27;;;;;;;14.95;9.10;;;23.60;99.90;;;;;;4863725;29;20029;-80
2021/08/30 06:26:52;;;;;;;13.05;9.35;;;23.60;99.90;;;;;;4880018;29;20035;-81
2021/08/30 06:29:18;;;;;;;12.50;8.55;;;23.60;99.90;;;;;;4848075;29;20029;-81
2021/08/30 06:31:44;;;;;;;15.85;8.48;;;23.60;99.90;;;;;;4879810;29;20041;-81
2021/08/30 06:34:09;;;;;;;11.52;8.70;;;23.60;99.90;;;;;;4879730;29;20035;-81
2021/08/30 06:36:35;;;;;;;11.73;8.73;;;23.60;99.90;;;;;;4879600;29;20037;-81
2021/08/30 06:39:01;;;;;;;12.63;8.52;;;23.60;99.90;;;;;;4863403;29;20068;-81
2021/08/30 06:41:28;;;;;;;11.52;8.50;;;23.60;99.90;;;;;;4863081;29;20120;-81
2021/08/30 06:43:54;;;;;;;14.38;8.77;;;23.60;99.90;;;;;;4879566;29;20029;-82
2021/08/30 06:46:19;;;;;;;15.50;8.90;;;23.60;99.90;;;;;;4863357;29;20068;-84
2021/08/30 06:48:45;;;;;;;10.60;7.93;;;23.60;99.90;;;;;;4879657;29;20060;-83
2021/08/30 06:51:11;;;;;;;11.23;8.23;;;23.70;99.90;;;;;;4863203;29;20033;-83
2021/08/30 06:53:36;;;;;;;13.27;9.50;;;23.70;99.90;;;;;;4862545;29;20029;-85
2021/08/30 06:56:02;;;;;;;11.20;8.05;;;23.60;99.90;;;;;;4862760;29;20040;-85
2021/08/30 06:58:28;;;;;;;14.25;8.70;;;23.60;99.90;;;;;;4878717;29;20495;-85
2021/08/30 07:00:54;;;;;;;11.90;8.30;;;23.60;99.90;;;;;;4879383;29;20372;-85
2021/08/30 07:03:19;;;;;;;12.75;8.20;;;23.70;99.90;;;;;;4879272;29;20478;-84
2021/08/30 07:05:45;;;;;;;12.68;8.85;;;23.60;99.90;;;;;;4861987;29;20039;-83
2021/08/30 07:08:11;;;;;;;11.18;7.95;;;23.60;99.90;;;;;;4879267;29;20524;-83
2021/08/30 07:10:36;;;;;;;12.70;7.55;;;23.60;99.90;;;;;;4847367;29;20507;-84
2021/08/30 07:13:02;;;;;;;12.68;8.63;;;23.70;99.90;;;;;;4879215;29;20033;-84
2021/08/30 07:15:28;;;;;;;11.88;8.18;;;23.60;99.90;;;;;;4878563;29;20157;-84
2021/08/30 07:17:54;;;;;;;12.80;8.43;;;23.60;99.90;;;;;;4861511;29;20037;-84
2021/08/30 07:20:19;;;;;;;10.00;7.72;;;23.60;99.90;;;;;;4862657;29;20049;-84
2021/08/30 07:22:45;;;;;;;14.40;8.40;;;23.70;99.90;;;;;;4880825;29;20068;-85
2021/08/30 07:25:11;;;;;;;10.45;7.47;;;23.70;99.90;;;;;;4882792;29;20040;-82
2021/08/30 07:27:36;;;;;;;14.93;8.10;;;23.70;99.90;;;;;;4882521;29;20045;-81
2021/08/30 07:30:04;;;;;;;12.18;7.70;;;23.70;99.90;;;;;;4865786;29;20080;-82
2021/08/30 07:32:29;;;;;;;10.52;7.75;;;23.70;99.90;;;;;;4866157;29;20037;-83
2021/08/30 07:34:55;;;;;;;11.52;8.07;;;23.70;99.90;;;;;;4866081;29;20048;-82
2021/08/30 07:37:21;;;;;;;10.88;7.55;;;23.70;99.90;;;;;;4866166;29;20037;-82
2021/08/30 07:39:46;;;;;;;12.10;7.72;;;23.70;99.90;;;;;;4865859;29;20124;-82
2021/08/30 07:42:12;;;;;;;13.18;7.82;;;23.70;99.90;;;;;;4882076;29;20029;-83
2021/08/30 07:44:38;;;;;;;12.98;8.02;;;23.70;99.90;;;;;;4865244;29;20034;-85
2021/08/30 07:47:04;;;;;;;12.77;7.93;;;23.70;99.90;;;;;;4882310;29;20036;-84
2021/08/30 07:49:30;;;;;;;11.38;7.72;;;23.70;99.90;;;;;;4864554;29;20532;-86
2021/08/30 07:51:55;;;;;;;12.43;8.35;;;23.70;99.90;;;;;;4863698;29;20037;-84
2021/08/30 07:54:21;;;;;;;14.50;8.07;;;23.70;99.90;;;;;;4866050;29;20092;-82
2021/08/30 07:56:47;;;;;;;12.85;7.90;;;23.70;99.90;;;;;;4865727;29;20085;-82
2021/08/30 07:59:12;;;;;;;11.70;7.07;;;23.70;99.90;;;;;;4882791;29;20044;-86
2021/08/30 08:01:38;;;;;;;14.95;7.90;;;23.70;99.90;;;;;;4865986;29;20400;-82
2021/08/30 08:04:04;;;;;;;12.30;7.85;;;23.70;99.90;;;;;;4865847;29;20498;-83
2021/08/30 08:06:30;;;;;;;11.02;6.90;;;23.70;99.90;;;;;;4865492;29;20037;-82
2021/08/30 08:08:56;;;;;;;12.20;7.30;;;23.70;99.90;;;;;;4881900;29;20052;-82
2021/08/30 08:11:22;;;;;;;11.77;7.30;;;23.70;99.90;;;;;;4866018;29;20032;-81
2021/08/30 08:13:48;;;;;;;18.67;8.25;;;23.70;99.90;;;;;;4882128;29;20552;-81
2021/08/30 08:16:14;;;;;;;13.27;8.02;;;23.70;99.90;;;;;;4850125;29;20540;-82
2021/08/30 08:18:40;;;;;;;11.35;7.32;;;23.70;99.90;;;;;;4881841;29;20033;-83
2021/08/30 08:21:07;;;;;;;12.32;7.82;;;23.70;99.90;;;;;;4881549;29;20036;-85
2021/08/30 08:23:34;;;;;;;13.20;7.35;;;23.70;99.90;;;;;;4880996;29;20029;-82
2021/08/30 08:26:07;;;;;;;10.10;7.18;;;23.70;99.90;;;;;;4865349;29;20056;-83
2021/08/30 08:28:34;;;;;;;12.20;7.33;;;23.70;99.90;;;;;;4882216;29;20124;-83
2021/08/30 08:30:59;;;;;;;12.43;7.47;;;23.80;99.90;;;;;;4881805;29;20534;-83
2021/08/30 08:33:25;;;;;;;11.40;6.97;;;23.70;99.90;;;;;;4864580;29;20116;-83
2021/08/30 08:35:51;;;;;;;11.65;6.90;;;23.70;99.90;;;;;;4865063;29;20383;-82
2021/08/30 08:38:16;;;;;;;9.55;6.97;;;23.80;99.90;;;;;;4881642;29;20391;-81
2021/08/30 08:40:42;;;;;;;9.02;6.35;;;23.70;99.90;;;;;;4881855;29;20076;-85
2021/08/30 08:43:13;;;;;;;9.05;6.25;;;23.70;99.90;;;;;;4865067;29;20033;-83
2021/08/30 08:45:41;;;;;;;11.57;6.65;;;23.80;99.90;;;;;;4865048;29;20040;-82
2021/08/30 08:48:07;;;;;;;11.73;6.60;;;23.70;99.90;;;;;;4881637;29;20468;-80
2021/08/30 08:50:33;;;;;;;12.18;7.22;;;23.80;99.90;;;;;;4881839;29;20057;-80
2021/08/30 08:53:03;;;;;;;13.43;7.85;;;23.80;99.90;;;;;;4881756;29;20073;-80
2021/08/30 08:55:40;;;;;;;10.80;7.28;;;23.80;99.90;;;;;;4881635;29;20033;-81
2021/08/30 08:58:10;;;;;;;11.25;7.28;;;23.80;99.90;;;;;;4849261;29;20072;-81
2021/08/30 09:00:37;;;;;;;12.20;7.25;;;23.80;99.90;;;;;;4864773;29;20052;-81
2021/08/30 09:03:03;;;;;;;10.18;6.53;;;23.90;99.90;;;;;;4864799;29;20037;-81
2021/08/30 09:05:34;;;;;;;11.85;6.90;;;23.90;99.90;;;;;;4881142;29;20029;-81
2021/08/30 09:08:03;;;;;;;10.20;6.72;;;23.80;99.90;;;;;;4880998;29;20112;-81
2021/08/30 09:10:31;;;;;;;12.13;7.22;;;23.80;99.90;;;;;;4864768;29;20029;-81
2021/08/30 09:13:07;;;;;;;12.48;7.30;;;23.90;99.90;;;;;;4864626;29;20066;-82
2021/08/30 09:15:40;;;;;;;10.32;6.68;;;23.90;99.90;;;;;;4880996;29;20061;-80
2021/08/30 09:18:09;;;;;;;12.60;7.32;;;23.90;99.90;;;;;;4881008;29;20399;-81
2021/08/30 09:20:35;;;;;;;11.90;7.30;;;23.90;99.90;;;;;;4881161;29;20172;-81
2021/08/30 09:23:13;;;;;;;11.88;6.65;;;23.90;99.90;;;;;;4880995;29;20520;-82
2021/08/30 09:25:40;;;;;;;12.60;6.57;;;23.90;99.90;;;;;;4881273;29;20032;-81
2021/08/30 09:28:06;;;;;;;12.25;6.88;;;23.90;99.90;;;;;;4848812;29;20041;-81
2021/08/30 09:30:31;;;;;;;12.60;7.22;;;23.90;99.90;;;;;;4881053;29;20032;-81
2021/08/30 09:32:59;;;;;;;10.38;6.85;;;23.90;99.90;;;;;;4864555;29;20037;-81
2021/08/30 09:35:25;;;;;;;9.75;6.25;;;23.90;99.90;;;;;;4864111;29;20037;-81
2021/08/30 09:37:51;;;;;;;11.77;6.78;;;23.90;99.90;;;;;;4880800;29;20052;-81
2021/08/30 09:40:18;;;;;;;11.13;6.60;;;23.90;99.90;;;;;;4863938;29;20064;-81
2021/08/30 09:42:53;;;;;;;13.88;7.00;;;23.90;99.90;;;;;;4880767;29;20035;-81
2021/08/30 09:45:20;;;;;;;;;;;23.90;99.90;;;;;;4880194;29;20036;-81
2021/08/30 09:47:49;;;;;;;11.07;6.68;;;23.90;99.90;;;;;;4880468;29;19951;-81
2021/08/30 09:50:17;;;;;;;10.88;6.63;;;23.90;99.90;;;;;;4880360;29;20056;-80
2021/08/30 09:52:43;;;;;;;11.30;5.90;;;23.90;99.90;;;;;;4864368;29;20033;-81
2021/08/30 09:55:09;;;;;;;13.48;6.97;;;23.90;99.90;;;;;;4880107;29;20068;-81
2021/08/30 09:57:36;;;;;;;13.55;6.60;;;23.90;99.90;;;;;;4880118;29;20073;-81
2021/08/30 10:00:04;;;;;;;14.48;6.55;;;23.90;99.90;;;;;;4879974;29;20108;-82
2021/08/30 10:02:31;;;;;;;12.98;6.88;;;23.90;99.90;;;;;;4863823;29;20040;-81
2021/08/30 10:05:03;;;;;;;9.90;6.03;;;23.90;99.90;;;;;;4880139;29;20116;-80
2021/08/30 10:07:31;;;;;;;12.60;6.35;;;23.90;99.90;;;;;;4880068;29;20587;-81
2021/08/30 10:10:00;;;;;;;11.20;6.47;;;23.90;99.90;;;;;;4880043;29;20456;-81
2021/08/30 10:12:25;;;;;;;9.35;5.85;;;23.90;99.90;;;;;;4879978;29;20472;-81
2021/08/30 10:14:51;;;;;;;10.27;5.93;;;23.90;99.90;;;;;;4880224;29;20033;-81
2021/08/30 10:17:18;;;;;;;10.60;6.15;;;23.90;99.90;;;;;;4879726;29;20037;-81
2021/08/30 10:19:55;;;;;;;13.48;6.57;;;23.90;99.90;;;;;;4880205;29;20475;-81
2021/08/30 10:22:21;;;;;;;13.02;6.35;;;23.90;99.90;;;;;;4879518;29;20069;-81
2021/08/30 10:24:48;;;;;;;11.45;6.50;;;24.00;99.90;;;;;;4880070;29;20036;-80
2021/08/30 10:27:15;;;;;;;11.55;6.10;;;23.90;99.90;;;;;;4879784;29;20123;-81
2021/08/30 10:29:43;;;;;;;14.07;6.60;;;23.90;99.90;;;;;;4880069;29;20115;-80
2021/08/30 10:32:35;;;;;;;13.27;6.55;;;23.90;99.90;;;;;;4862808;29;20033;-81
2021/08/30 10:35:15;;;;;;;9.98;6.03;;;23.90;99.90;;;;;;4863198;29;20040;-80
2021/08/30 10:38:14;;;;;;;12.38;7.13;;;23.90;99.90;;;;;;4879771;29;20029;-80
2021/08/30 10:40:40;;;;;;;13.35;7.13;;;23.90;99.90;;;;;;4866623;29;20077;-81
2021/08/30 10:43:14;;;;;;;10.75;6.47;;;24.00;99.90;;;;;;4879575;29;20424;-81
2021/08/30 10:45:58;;;;;;;12.82;7.15;;;23.90;99.90;;;;;;4879650;29;20547;-80
2021/08/30 10:48:36;;;;;;;11.40;6.90;;;24.00;99.90;;;;;;4879273;29;20037;-81
2021/08/30 10:51:17;;;;;;;12.85;6.78;;;24.00;99.90;;;;;;4879772;29;20040;-80
2021/08/30 10:53:54;;;;;;;13.10;6.22;;;24.00;99.90;;;;;;4879733;29;20059;-81
2021/08/30 10:56:25;;;;;;;13.23;6.47;;;24.00;99.90;;;;;;4879317;29;20565;-80
2021/08/30 10:58:50;;;;;;;11.10;6.63;;;24.00;99.90;;;;;;4879593;29;20092;-80
2021/08/30 11:01:16;;;;;;;11.20;6.10;;;24.00;99.90;;;;;;4879410;29;20037;-81
2021/08/30 11:03:42;;;;;;;8.27;6.00;;;24.00;99.90;;;;;;4879467;29;20033;-81
2021/08/30 11:06:12;;;;;;;12.95;6.60;;;24.00;99.90;;;;;;4879233;29;20065;-80
2021/08/30 11:08:43;;;;;;;11.05;5.95;;;24.00;99.90;;;;;;4879555;29;20115;-81
2021/08/30 11:11:15;;;;;;;12.25;5.38;;;24.10;99.90;;;;;;4879331;29;20077;-81
2021/08/30 11:13:43;;;;;;;9.63;6.13;;;24.10;99.90;;;;;;4879242;29;20025;-80
2021/08/30 11:16:23;;;;;;;9.38;5.72;;;24.10;99.90;;;;;;4862755;29;20033;-81
2021/08/30 11:19:14;;;;;;;8.57;5.40;;;24.10;99.90;;;;;;4879260;29;20045;-81
2021/08/30 11:21:47;;;;;;;10.00;5.88;;;24.10;99.90;;;;;;4858675;29;20084;-81
2021/08/30 11:24:27;;;;;;;11.00;6.05;;;24.10;99.90;;;;;;4878739;29;20476;-82
2021/08/30 11:26:56;;;;;;;10.57;5.80;;;24.20;99.90;;;;;;4879327;29;20029;-80
2021/08/30 11:29:22;;;;;;;11.77;5.78;;;24.20;99.90;;;;;;4878562;29;20029;-81
2021/08/30 11:31:49;;;;;;;9.38;5.43;;;24.20;99.90;;;;;;4879131;29;20060;-80
2021/08/30 11:34:23;;;;;;;10.25;5.75;;;24.20;99.90;;;;;;4878920;29;20056;-80
2021/08/30 11:36:50;;;;;;;8.40;5.43;;;24.20;99.90;;;;;;4878661;29;20079;-80
2021/08/30 11:39:20;;;;;;;8.93;5.60;;;24.20;99.90;;;;;;4878820;29;20041;-80
2021/08/30 11:41:51;;;;;;;9.02;5.45;;;24.20;99.90;;;;;;4862344;29;20132;-80
2021/08/30 11:44:16;;;;;;;6.85;5.00;;;24.20;99.90;;;;;;4879025;29;20025;-81
2021/08/30 11:46:55;;;;;;;10.23;5.97;;;24.20;99.90;;;;;;4862367;29;20060;-80
2021/08/30 11:49:29;;;;;;;9.70;6.13;;;24.20;99.90;;;;;;4878823;29;20037;-81
2021/08/30 11:51:58;;;;;;;8.35;5.00;;;24.30;99.90;;;;;;4879047;29;20041;-80
2021/08/30 11:54:30;;;;;;;9.82;5.43;;;24.20;99.90;;;;;;4878483;29;20503;-80
2021/08/30 11:57:03;;;;;;;7.53;5.18;;;24.30;99.90;;;;;;4878904;29;20037;-80
2021/08/30 11:59:36;;;;;;;10.70;5.93;;;24.30;99.90;;;;;;4878819;29;20067;-80
2021/08/30 12:02:04;;;;;;;11.95;5.95;;;24.30;99.90;;;;;;4879297;29;20476;-80
2021/08/30 12:04:32;;;;;;;9.00;5.32;;;24.30;99.90;;;;;;4878706;29;20064;-81
2021/08/30 12:07:03;;;;;;;7.53;5.15;;;24.30;99.90;;;;;;4878846;29;20037;-81
2021/08/30 12:09:53;;;;;;;7.80;5.13;;;24.30;99.90;;;;;;4880128;29;20033;-81
2021/08/30 12:12:28;;;;;;;7.15;5.75;;;24.30;99.90;;;;;;4882526;29;20037;-81
2021/08/30 12:15:17;;;;;;;7.55;4.85;;;24.30;99.90;;;;;;4882464;29;20464;-81
2021/08/30 12:17:45;;;;;;;9.02;5.68;;;24.30;99.90;;;;;;4881983;29;20044;-80
2021/08/30 12:20:17;;;;;;;8.30;5.47;;;24.40;99.90;;;;;;4882390;29;20025;-81
2021/08/30 12:22:49;;;;;;;8.40;5.53;;;24.30;99.90;;;;;;4881835;29;20060;-81
2021/08/30 12:25:24;;;;;;;8.13;5.35;;;24.30;99.90;;;;;;4881694;29;20148;-80
2021/08/30 12:27:52;;;;;;;7.53;5.38;;;24.40;99.90;;;;;;4882106;29;20037;-80
2021/08/30 12:30:24;;;;;;;5.72;5.00;;;24.40;99.90;;;;;;4881837;29;20048;-85
2021/08/30 12:32:55;;;;;;;8.98;5.47;;;24.40;99.90;;;;;;4881694;29;20112;-81
2021/08/30 12:35:26;;;;;;;7.63;4.90;;;24.40;99.90;;;;;;4881683;29;20037;-81
2021/08/30 12:37:57;;;;;;;8.95;5.22;;;24.40;99.90;;;;;;4881930;29;20033;-80
2021/08/30 12:40:24;;;;;;;7.68;5.25;;;24.40;99.90;;;;;;4881589;29;20044;-81
2021/08/30 12:42:50;;;;;;;8.75;5.65;;;24.40;99.90;;;;;;4881626;29;20037;-81
2021/08/30 12:45:16;;;;;;;6.70;4.97;;;24.40;99.90;;;;;;4865063;29;20390;-80
2021/08/30 12:47:42;;;;;;;7.97;4.65;;;24.40;99.90;;;;;;4881237;29;20120;-81
2021/08/30 12:50:08;;;;;;;6.88;5.55;;;24.40;99.90;;;;;;4881627;29;20088;-80